createdAt,value
2018-03-22T00:01:39.011Z,101012
2018-03-22T00:06:40.717Z,101009
2018-03-22T00:11:42.248Z,100991
2018-03-22T00:16:43.765Z,100991
2018-03-22T00:21:45.336Z,100989
2018-03-22T00:26:46.882Z,100978
2018-03-22T00:31:48.398Z,100970
2018-03-22T00:36:50.649Z,100972
2018-03-22T00:41:52.213Z,100976
2018-03-22T00:46:53.724Z,100961
2018-03-22T00:51:55.998Z,100970
2018-03-22T00:56:58.252Z,100945
2018-03-22T01:01:59.901Z,100958
2018-03-22T01:07:01.420Z,100962
2018-03-22T01:12:02.955Z,100950
2018-03-22T01:17:04.475Z,100946
2018-03-22T01:22:06.737Z,100946
2018-03-22T01:27:08.245Z,100939
2018-03-22T01:32:09.775Z,100946
2018-03-22T01:37:11.332Z,100927
2018-03-22T01:42:12.852Z,100928
2018-03-22T01:47:14.391Z,100922
2018-03-22T01:52:16.641Z,100913
2018-03-22T01:57:18.166Z,100900
2018-03-22T02:02:19.701Z,100895
2018-03-22T02:07:21.229Z,100874
2018-03-22T02:12:22.775Z,100873
2018-03-22T02:17:24.332Z,100879
2018-03-22T02:22:25.867Z,100862
2018-03-22T02:27:28.160Z,100853
2018-03-22T02:32:30.368Z,100839
2018-03-22T02:37:31.893Z,100831
2018-03-22T02:42:33.446Z,100813
2018-03-22T02:47:34.945Z,100825
2018-03-22T02:52:37.281Z,100812
2018-03-22T02:57:38.904Z,100819
2018-03-22T03:02:41.161Z,100807
2018-03-22T03:07:49.623Z,100802
2018-03-22T03:12:51.881Z,100798
2018-03-22T03:17:53.435Z,100786
2018-03-22T03:22:54.942Z,100784
2018-03-22T03:27:57.239Z,100773
2018-03-22T03:32:58.780Z,100768
2018-03-22T03:38:00.311Z,100754
2018-03-22T03:43:02.098Z,100743
2018-03-22T03:48:03.641Z,100734
2018-03-22T03:53:05.169Z,100742
2018-03-22T03:58:07.451Z,100746
2018-03-22T04:03:09.708Z,100742
2018-03-22T04:08:11.217Z,100737
2018-03-22T04:13:13.597Z,100724
2018-03-22T04:18:15.984Z,100719
2018-03-22T04:23:18.338Z,100697
2018-03-22T04:28:19.911Z,100685
2018-03-22T04:33:21.429Z,100684
2018-03-22T04:38:22.958Z,100676
2018-03-22T04:43:24.506Z,100671
2018-03-22T04:48:26.032Z,100664
2018-03-22T04:53:27.555Z,100651
2018-03-22T04:58:29.062Z,100646
2018-03-22T05:03:30.621Z,100636
2018-03-22T05:08:32.173Z,100634
2018-03-22T05:13:34.438Z,100623
2018-03-22T05:18:35.951Z,100613
2018-03-22T05:23:38.168Z,100619
2018-03-22T05:28:39.704Z,100604
2018-03-22T05:33:41.924Z,100597
2018-03-22T05:38:43.454Z,100598
2018-03-22T05:43:46.987Z,100606
2018-03-22T05:48:48.492Z,100599
2018-03-22T05:53:50.019Z,100596
2018-03-22T05:58:52.133Z,100581
2018-03-22T06:03:53.738Z,100586
2018-03-22T06:08:56.002Z,100577
2018-03-22T06:13:57.545Z,100581
2018-03-22T06:18:59.046Z,100562
2018-03-22T06:24:00.538Z,100561
2018-03-22T06:29:02.042Z,100551
2018-03-22T06:34:03.532Z,100551
2018-03-22T06:39:05.097Z,100547
2018-03-22T06:44:06.620Z,100542
2018-03-22T06:49:08.193Z,100524
2018-03-22T06:54:09.721Z,100510
2018-03-22T06:59:11.325Z,100528
2018-03-22T07:04:12.965Z,100498
2018-03-22T07:09:15.229Z,100485
2018-03-22T07:14:16.941Z,100478
2018-03-22T07:19:18.481Z,100482
2018-03-22T07:24:20.064Z,100474
2018-03-22T07:29:22.338Z,100463
2018-03-22T07:34:23.895Z,100466
2018-03-22T07:39:25.442Z,100459
2018-03-22T07:44:33.112Z,100465
2018-03-22T07:49:34.751Z,100479
2018-03-22T07:54:36.327Z,100463
2018-03-22T07:59:38.577Z,100450
2018-03-22T08:04:40.070Z,100454
2018-03-22T08:09:41.679Z,100436
2018-03-22T08:14:43.256Z,100427
2018-03-22T08:19:44.794Z,100406
2018-03-22T08:24:47.206Z,100420
2018-03-22T08:29:48.755Z,100426
2018-03-22T08:34:50.335Z,100427
2018-03-22T08:39:51.836Z,100440
2018-03-22T08:44:53.426Z,100434
2018-03-22T08:49:54.972Z,100443
2018-03-22T08:54:56.629Z,100440
2018-03-22T08:59:58.159Z,100442
2018-03-22T09:05:00.443Z,100433
2018-03-22T09:10:02.692Z,100419
2018-03-22T09:15:04.242Z,100402
2018-03-22T09:20:05.779Z,100409
2018-03-22T09:25:07.429Z,100399
2018-03-22T09:30:09.734Z,100399
2018-03-22T09:35:12.025Z,100399
2018-03-22T09:40:13.638Z,100376
2018-03-22T09:45:15.189Z,100367
2018-03-22T09:50:16.733Z,100364
2018-03-22T09:55:18.282Z,100359
2018-03-22T10:00:20.570Z,100335
2018-03-22T10:05:22.857Z,100315
2018-03-22T10:10:25.195Z,100313
2018-03-22T10:15:26.760Z,100317
2018-03-22T10:20:28.331Z,100299
2018-03-22T10:25:29.869Z,100300
2018-03-22T10:30:31.463Z,100292
2018-03-22T10:35:33.008Z,100283
2018-03-22T10:40:34.559Z,100278
2018-03-22T10:45:43.943Z,100282
2018-03-22T10:50:45.519Z,100290
2018-03-22T10:55:47.058Z,100272
2018-03-22T11:00:54.580Z,100273
2018-03-22T11:05:56.130Z,100261
2018-03-22T11:10:57.713Z,100264
2018-03-22T11:15:59.284Z,100255
2018-03-22T11:21:00.866Z,100247
2018-03-22T11:26:02.414Z,100238
2018-03-22T11:31:03.927Z,100211
2018-03-22T11:36:05.500Z,100195
2018-03-22T11:41:07.011Z,100200
2018-03-22T11:46:11.105Z,100203
2018-03-22T11:51:12.632Z,100207
2018-03-22T11:56:14.185Z,100196
2018-03-22T12:01:15.758Z,100168
2018-03-22T12:06:17.336Z,100164
2018-03-22T12:11:18.895Z,100162
2018-03-22T12:16:20.456Z,100149
2018-03-22T12:21:22.024Z,100139
2018-03-22T12:26:23.612Z,100118
2018-03-22T12:31:25.159Z,100124
2018-03-22T12:36:26.655Z,100112
2018-03-22T12:41:28.148Z,100111
2018-03-22T12:46:29.863Z,100093
2018-03-22T12:51:31.460Z,100098
2018-03-22T12:56:32.990Z,100085
2018-03-22T13:01:34.572Z,100085
2018-03-22T13:06:36.328Z,100057
2018-03-22T13:11:38.563Z,100061
2018-03-22T13:16:40.179Z,100057
2018-03-22T13:21:42.477Z,100048
2018-03-22T13:26:44.013Z,100049
2018-03-22T13:31:45.586Z,100040
2018-03-22T13:36:47.873Z,100044
2018-03-22T13:41:50.186Z,100038
2018-03-22T13:46:51.758Z,100039
2018-03-22T13:51:53.362Z,100028
2018-03-22T13:56:54.973Z,100036
2018-03-22T14:01:57.306Z,100033
2018-03-22T14:06:58.986Z,100030
2018-03-22T14:12:00.576Z,100026
2018-03-22T14:17:02.113Z,100013
2018-03-22T14:22:03.665Z,100014
2018-03-22T14:27:05.233Z,100005
2018-03-22T14:32:06.805Z,100006
2018-03-22T14:37:08.486Z,100007
2018-03-22T14:42:10.011Z,99992
2018-03-22T14:47:12.368Z,99984
2018-03-22T14:52:13.941Z,99975
2018-03-22T14:57:15.526Z,99986
2018-03-22T15:02:17.087Z,99980
2018-03-22T15:07:18.662Z,99974
2018-03-22T15:12:20.238Z,99969
2018-03-22T15:17:22.549Z,99971
2018-03-22T15:22:24.123Z,99965
2018-03-22T15:27:25.693Z,99964
2018-03-22T15:32:27.364Z,99971
2018-03-22T15:37:28.905Z,99962
2018-03-22T15:42:31.252Z,99957
2018-03-22T15:47:32.805Z,99957
2018-03-22T15:52:34.370Z,99971
2018-03-22T15:57:35.943Z,99965
2018-03-22T16:02:37.540Z,99957
2018-03-22T16:07:39.114Z,99952
2018-03-22T16:12:40.660Z,99948
2018-03-22T16:17:42.336Z,99953
2018-03-22T16:22:44.929Z,99963
2018-03-22T16:27:46.523Z,99960
2018-03-22T16:32:48.106Z,99965
2018-03-22T16:37:50.429Z,99960
2018-03-22T16:42:51.964Z,99966
2018-03-22T16:47:54.266Z,99970
2018-03-22T16:52:55.776Z,99969
2018-03-22T16:57:57.415Z,99960
2018-03-22T17:02:59.025Z,99950
2018-03-22T17:08:00.579Z,99950
2018-03-22T17:13:02.141Z,99958
2018-03-22T17:18:03.625Z,99947
2018-03-22T17:23:05.189Z,99944
2018-03-22T17:28:06.765Z,99946
2018-03-22T17:33:08.349Z,99929
2018-03-22T17:38:10.004Z,99937
2018-03-22T17:43:11.726Z,99936
2018-03-22T17:48:13.267Z,99945
2018-03-22T17:53:15.858Z,99946
2018-03-22T17:58:18.868Z,99948
2018-03-22T18:03:21.709Z,99945
2018-03-22T18:08:23.823Z,99946
2018-03-22T18:13:26.502Z,99943
2018-03-22T18:18:29.699Z,99941
2018-03-22T18:23:31.592Z,99941
2018-03-22T18:28:34.427Z,99944
2018-03-22T18:33:37.024Z,99954
2018-03-22T18:38:39.948Z,99939
2018-03-22T18:43:44.728Z,99943
2018-03-22T18:48:48.044Z,99938
2018-03-22T18:53:52.793Z,99934
2018-03-22T18:58:56.790Z,99932
2018-03-22T19:04:00.497Z,99935
2018-03-22T19:09:04.956Z,99930
2018-03-22T19:14:08.147Z,99935
2018-03-22T19:19:12.266Z,99933
2018-03-22T19:24:15.524Z,99933
2018-03-22T19:29:26.217Z,99932
2018-03-22T19:34:30.350Z,99922
2018-03-22T19:39:33.839Z,99922
2018-03-22T19:44:37.717Z,99926
2018-03-22T19:49:41.867Z,99925
2018-03-22T19:54:48.064Z,99921
2018-03-22T19:59:51.282Z,99922
2018-03-22T20:04:55.106Z,99930
2018-03-22T20:09:58.879Z,99918
2018-03-22T20:15:02.574Z,99909
2018-03-22T20:20:05.965Z,99905
2018-03-22T20:25:09.875Z,99901
2018-03-22T20:30:17.268Z,99903
2018-03-22T20:35:21.057Z,99905
2018-03-22T20:40:25.284Z,99912
2018-03-22T20:45:29.592Z,99902
2018-03-22T20:50:32.983Z,99905
2018-03-22T20:55:36.836Z,99893
2018-03-22T21:00:42.354Z,99903
2018-03-22T21:05:44.279Z,99899
2018-03-22T21:10:46.097Z,99897
2018-03-22T21:15:47.882Z,99900
2018-03-22T21:20:49.555Z,99894
2018-03-22T21:25:51.398Z,99909
2018-03-22T21:30:54.962Z,99897
2018-03-22T21:35:57.593Z,99888
2018-03-22T21:40:59.189Z,99895
2018-03-22T21:46:00.831Z,99884
2018-03-22T21:51:02.512Z,99872
2018-03-22T21:56:04.123Z,99878
2018-03-22T22:01:05.726Z,99869
2018-03-22T22:06:07.448Z,99869
2018-03-22T22:11:09.252Z,99849
2018-03-22T22:16:11.592Z,99849
2018-03-22T22:21:13.217Z,99844
2018-03-22T22:26:15.606Z,99842
2018-03-22T22:31:23.844Z,99844
2018-03-22T22:36:30.663Z,99852
2018-03-22T22:41:39.441Z,99846
2018-03-22T22:46:46.428Z,99849
2018-03-22T22:51:57.840Z,99833
2018-03-22T22:56:59.828Z,99822
2018-03-22T23:02:06.801Z,99823
2018-03-22T23:07:11.343Z,99819
2018-03-22T23:12:17.992Z,99806
2018-03-22T23:17:22.780Z,99800
2018-03-22T23:22:27.311Z,99797
2018-03-22T23:27:32.809Z,99798
2018-03-22T23:32:37.800Z,99804
2018-03-22T23:37:43.060Z,99802
2018-03-22T23:42:51.342Z,99806
2018-03-22T23:47:58.199Z,99802
2018-03-22T23:53:03.541Z,99796
2018-03-22T23:58:09.676Z,99786
